Time;durP1;ratioP1;P1;durP2;ratioP2;P2;SDS_P1;SDS_P2;PMS_P1;PMS_P2;Temp;Humidity;BMP_temperature;BMP_pressure;BME280_temperature;BME280_humidity;BME280_pressure;Samples;Min_cycle;Max_cycle;Signal;HPM_P1;HPM_P2
2022/12/08 00:01:09;;;;;;;13.63;6.05;;;5.50;99.90;;;;;;5034529;28;20030;-73
2022/12/08 00:03:36;;;;;;;9.35;5.78;;;5.40;99.90;;;;;;5032401;28;20042;-73
2022/12/08 00:11:38;;;;;;;12.43;5.72;;;5.40;99.90;;;;;;5032409;28;20037;-73
2022/12/08 00:14:04;;;;;;;8.93;5.43;;;5.30;99.90;;;;;;5038395;28;20029;-72
2022/12/08 00:16:30;;;;;;;13.70;6.03;;;5.30;99.90;;;;;;5034358;28;20516;-73
2022/12/08 00:18:58;;;;;;;6.82;5.18;;;5.30;99.90;;;;;;5032822;28;20466;-72
2022/12/08 00:21:24;;;;;;;6.53;5.30;;;5.20;99.90;;;;;;5033099;28;20094;-73
2022/12/08 00:23:53;;;;;;;15.20;5.07;;;5.30;99.90;;;;;;5030245;28;20025;-73
2022/12/08 00:26:18;;;;;;;11.10;5.05;;;5.30;99.90;;;;;;5030081;28;20030;-72
2022/12/08 00:28:44;;;;;;;11.98;5.07;;;5.20;99.90;;;;;;5034228;28;20044;-74
2022/12/08 00:31:11;;;;;;;10.30;5.03;;;5.20;99.90;;;;;;5028830;28;20501;-72
2022/12/08 00:33:39;;;;;;;8.52;4.35;;;5.10;99.90;;;;;;5029595;28;20414;-72
2022/12/08 00:36:06;;;;;;;8.07;4.47;;;5.10;99.90;;;;;;5032430;28;20025;-72
2022/12/08 00:38:32;;;;;;;6.35;4.40;;;5.10;99.90;;;;;;5037329;28;20036;-73
2022/12/08 00:40:58;;;;;;;8.80;4.65;;;5.10;99.90;;;;;;5033736;28;20456;-72
2022/12/08 00:43:26;;;;;;;7.45;4.55;;;5.10;99.90;;;;;;5034280;28;20031;-73
2022/12/08 00:45:52;;;;;;;8.82;5.40;;;5.10;99.90;;;;;;5031372;28;20029;-72
2022/12/08 00:48:17;;;;;;;12.30;5.07;;;5.10;99.90;;;;;;5032677;28;20021;-73
2022/12/08 00:50:43;;;;;;;6.22;4.65;;;5.20;99.90;;;;;;5035358;28;20033;-72
2022/12/08 00:53:11;;;;;;;8.27;4.75;;;5.20;99.90;;;;;;5032246;28;20040;-73
2022/12/08 00:55:36;;;;;;;12.27;5.38;;;5.20;99.90;;;;;;5037303;28;20033;-72
2022/12/08 00:58:02;;;;;;;15.07;5.40;;;5.30;99.90;;;;;;5031743;28;20025;-73
2022/12/08 01:00:28;;;;;;;8.00;5.47;;;5.20;99.90;;;;;;5032963;28;20108;-73
2022/12/08 01:02:53;;;;;;;10.38;5.78;;;5.20;99.90;;;;;;5036834;28;20052;-73
2022/12/08 01:05:19;;;;;;;12.75;6.72;;;5.20;99.90;;;;;;5032755;28;20152;-73
2022/12/08 01:07:48;;;;;;;10.65;7.15;;;5.20;99.90;;;;;;5035853;28;20092;-74
2022/12/08 01:10:14;;;;;;;9.77;6.78;;;5.20;99.90;;;;;;5031714;28;20126;-73
2022/12/08 01:12:44;;;;;;;13.52;6.97;;;5.20;99.90;;;;;;5034278;28;20032;-74
2022/12/08 01:15:12;;;;;;;16.40;9.13;;;5.20;99.90;;;;;;5032553;28;20021;-73
2022/12/08 01:17:38;;;;;;;13.23;7.95;;;5.20;99.90;;;;;;5030385;28;20029;-71
2022/12/08 01:20:05;;;;;;;17.75;9.70;;;5.20;99.90;;;;;;5028244;28;20433;-73
2022/12/08 01:22:34;;;;;;;18.15;10.70;;;5.20;99.90;;;;;;5030119;28;20030;-73
2022/12/08 01:24:59;;;;;;;18.58;10.88;;;5.30;99.90;;;;;;5034429;28;20406;-72
2022/12/08 01:27:25;;;;;;;17.38;10.45;;;5.30;99.90;;;;;;5037050;28;20044;-72
2022/12/08 01:29:50;;;;;;;19.00;11.60;;;5.20;99.90;;;;;;5037976;28;20036;-74
2022/12/08 01:32:19;;;;;;;16.27;10.48;;;5.30;99.90;;;;;;5029771;28;20033;-73
2022/12/08 01:34:44;;;;;;;17.20;11.25;;;5.30;99.90;;;;;;5033650;28;20037;-74
2022/12/08 01:37:11;;;;;;;18.73;11.35;;;5.30;99.90;;;;;;5032589;28;20029;-75
2022/12/08 01:39:39;;;;;;;21.02;12.05;;;5.30;99.90;;;;;;5030134;28;20025;-73
2022/12/08 01:42:05;;;;;;;19.67;12.10;;;5.30;99.90;;;;;;5029456;28;20133;-73
2022/12/08 01:44:37;;;;;;;20.33;12.43;;;5.40;99.90;;;;;;5033606;28;20434;-74
2022/12/08 01:47:05;;;;;;;23.63;12.77;;;5.40;99.90;;;;;;5033603;28;20029;-73
2022/12/08 01:49:34;;;;;;;21.17;12.13;;;5.30;99.90;;;;;;5032230;28;20362;-73
2022/12/08 01:52:17;;;;;;;20.55;13.00;;;5.30;99.90;;;;;;5033686;28;20025;-73
2022/12/08 01:55:01;;;;;;;21.73;13.05;;;5.30;99.90;;;;;;5035584;28;20067;-74
2022/12/08 01:57:35;;;;;;;27.92;14.18;;;5.30;99.90;;;;;;5032933;28;20029;-75
2022/12/08 02:00:10;;;;;;;22.67;14.88;;;5.40;99.90;;;;;;5030161;28;20053;-73
2022/12/08 02:02:55;;;;;;;23.70;14.30;;;5.40;99.90;;;;;;5033345;28;20031;-74
2022/12/08 02:05:33;;;;;;;29.60;14.88;;;5.50;99.90;;;;;;5034508;28;20021;-73
2022/12/08 02:08:03;;;;;;;28.75;16.67;;;5.50;99.90;;;;;;5030423;28;20433;-73
2022/12/08 02:10:33;;;;;;;28.05;15.55;;;5.40;99.90;;;;;;5027227;28;20021;-72
2022/12/08 02:12:59;;;;;;;28.92;16.17;;;5.40;99.90;;;;;;5032930;28;20017;-72
2022/12/08 02:15:57;;;;;;;30.08;18.10;;;5.40;99.90;;;;;;5030420;28;20034;-73
2022/12/08 02:18:41;;;;;;;30.35;17.63;;;5.40;99.90;;;;;;5026186;28;20037;-72
2022/12/08 02:21:39;;;;;;;28.40;16.67;;;5.40;99.90;;;;;;5039191;28;20045;-72
2022/12/08 02:24:19;;;;;;;30.13;17.83;;;5.40;99.90;;;;;;5032794;28;20045;-71
2022/12/08 02:27:04;;;;;;;29.45;16.92;;;5.50;99.90;;;;;;5033079;28;20025;-73
2022/12/08 02:29:52;;;;;;;31.95;17.50;;;5.50;99.90;;;;;;5034127;28;20071;-73
2022/12/08 02:32:26;;;;;;;35.78;18.48;;;5.50;99.90;;;;;;5032806;28;20022;-74
2022/12/08 02:35:11;;;;;;;31.40;18.42;;;5.50;99.90;;;;;;5037823;28;20025;-73
2022/12/08 02:38:12;;;;;;;34.30;18.70;;;5.50;99.90;;;;;;5039389;28;20129;-74
2022/12/08 02:41:06;;;;;;;31.98;18.85;;;5.50;99.90;;;;;;5036419;28;20466;-74
2022/12/08 02:43:47;;;;;;;39.10;20.27;;;5.50;99.90;;;;;;5033109;28;20041;-74
2022/12/08 02:46:34;;;;;;;36.30;20.33;;;5.60;99.90;;;;;;5035028;28;20025;-75
2022/12/08 02:49:01;;;;;;;34.65;20.00;;;5.50;99.90;;;;;;5037174;28;20021;-74
2022/12/08 02:51:29;;;;;;;38.70;20.52;;;5.60;99.90;;;;;;5032877;28;20107;-73
2022/12/08 02:53:58;;;;;;;47.78;22.27;;;5.50;99.90;;;;;;5035895;28;20045;-74
2022/12/08 02:57:01;;;;;;;41.22;21.95;;;5.50;99.90;;;;;;5032831;28;20029;-73
2022/12/08 02:59:44;;;;;;;42.75;23.05;;;5.60;99.90;;;;;;5033142;28;20029;-74
2022/12/08 03:02:16;;;;;;;42.50;23.00;;;5.60;99.90;;;;;;5033621;28;20025;-73
2022/12/08 03:05:17;;;;;;;44.25;22.00;;;5.50;99.90;;;;;;5022037;28;20100;-75
2022/12/08 03:07:54;;;;;;;43.13;23.13;;;5.50;99.90;;;;;;5029832;28;20400;-74
2022/12/08 03:10:28;;;;;;;41.95;22.00;;;5.50;99.90;;;;;;5022339;28;20041;-75
2022/12/08 03:13:24;;;;;;;42.42;22.20;;;5.50;99.90;;;;;;5033676;28;20383;-72
2022/12/08 03:15:53;;;;;;;43.15;22.88;;;5.60;99.90;;;;;;5040469;28;20064;-73
2022/12/08 03:18:27;;;;;;;41.05;23.98;;;5.60;99.90;;;;;;5034201;28;20524;-74
2022/12/08 03:20:55;;;;;;;35.55;20.75;;;5.60;99.90;;;;;;5030812;28;20021;-73
2022/12/08 03:23:27;;;;;;;46.90;24.08;;;5.50;99.90;;;;;;5020367;28;20025;-73
2022/12/08 03:26:07;;;;;;;40.97;22.73;;;5.50;99.90;;;;;;5037872;28;20191;-74
2022/12/08 03:28:36;;;;;;;40.22;22.00;;;5.60;99.90;;;;;;5052763;28;20153;-74
2022/12/08 03:31:06;;;;;;;39.65;21.15;;;5.60;99.90;;;;;;5037145;28;20025;-71
2022/12/08 03:33:38;;;;;;;41.40;22.00;;;5.60;99.90;;;;;;5037286;28;20025;-73
2022/12/08 03:36:08;;;;;;;;;;;5.60;99.90;;;;;;5032921;28;20136;-74
2022/12/08 03:38:42;;;;;;;40.50;21.65;;;5.60;99.90;;;;;;5032281;28;20344;-72
2022/12/08 03:41:19;;;;;;;42.20;21.63;;;5.60;99.90;;;;;;5034901;28;20037;-72
2022/12/08 03:43:52;;;;;;;38.63;20.35;;;5.70;99.90;;;;;;5032765;28;20030;-73
2022/12/08 03:46:23;;;;;;;37.38;20.85;;;5.70;99.90;;;;;;5034131;28;20362;-72
2022/12/08 03:48:51;;;;;;;34.63;20.13;;;5.70;99.90;;;;;;5033103;28;20021;-74
2022/12/08 03:51:17;;;;;;;39.90;21.27;;;5.60;99.90;;;;;;5032289;28;20174;-72
2022/12/08 03:53:45;;;;;;;42.30;21.52;;;5.70;99.90;;;;;;5035406;28;20108;-73
2022/12/08 03:56:31;;;;;;;43.55;21.25;;;5.70;99.90;;;;;;5022442;28;20026;-73
2022/12/08 03:58:57;;;;;;;37.33;21.23;;;5.70;99.90;;;;;;5034091;28;20025;-72
2022/12/08 04:01:26;;;;;;;41.80;21.38;;;5.70;99.90;;;;;;5035539;28;20063;-72
2022/12/08 04:03:52;;;;;;;35.50;19.75;;;5.70;99.90;;;;;;5032921;28;20022;-74
2022/12/08 04:06:21;;;;;;;43.40;22.40;;;5.60;99.90;;;;;;5031550;28;20037;-72
2022/12/08 04:08:49;;;;;;;39.08;21.98;;;5.70;99.90;;;;;;5031555;28;20099;-73
2022/12/08 04:11:15;;;;;;;36.20;21.42;;;5.70;99.90;;;;;;5030908;28;20509;-72
2022/12/08 04:13:41;;;;;;;36.55;20.98;;;5.60;99.90;;;;;;5039933;28;20127;-73
2022/12/08 04:16:13;;;;;;;37.58;20.67;;;5.60;99.90;;;;;;5030935;28;20041;-73
2022/12/08 04:18:39;;;;;;;34.78;20.42;;;5.60;99.90;;;;;;5031820;28;20083;-74
2022/12/08 04:21:04;;;;;;;40.58;21.17;;;5.60;99.90;;;;;;5035451;28;20117;-74
2022/12/08 04:23:32;;;;;;;37.40;20.08;;;5.70;99.90;;;;;;5036601;28;20163;-74
2022/12/08 04:25:58;;;;;;;39.50;21.83;;;5.60;99.90;;;;;;5035182;28;20110;-74
2022/12/08 04:28:28;;;;;;;42.50;22.15;;;5.60;99.90;;;;;;5032642;28;20056;-74
2022/12/08 04:30:54;;;;;;;40.42;21.88;;;5.60;99.90;;;;;;5021271;28;20032;-71
2022/12/08 04:33:22;;;;;;;37.85;19.92;;;5.70;99.90;;;;;;5036057;28;20025;-75
2022/12/08 04:35:48;;;;;;;35.50;20.00;;;5.60;99.90;;;;;;5032033;28;20118;-73
2022/12/08 04:38:14;;;;;;;39.50;18.92;;;5.70;99.90;;;;;;5032001;28;20095;-73
2022/12/08 04:40:39;;;;;;;38.30;19.98;;;5.60;99.90;;;;;;5031478;28;20029;-74
2022/12/08 04:43:05;;;;;;;31.40;18.33;;;5.60;99.90;;;;;;5030884;28;20118;-73
2022/12/08 04:45:31;;;;;;;30.17;18.17;;;5.60;99.90;;;;;;5034753;28;20025;-72
2022/12/08 04:47:58;;;;;;;25.15;16.25;;;5.60;99.90;;;;;;5031973;28;20037;-71
2022/12/08 04:50:26;;;;;;;26.05;16.67;;;5.60;99.90;;;;;;5036111;28;20067;-73
2022/12/08 04:52:51;;;;;;;30.80;17.02;;;5.60;99.90;;;;;;5038303;28;20107;-73
2022/12/08 04:55:17;;;;;;;27.63;15.60;;;5.60;99.90;;;;;;5034804;28;20076;-71
2022/12/08 04:57:45;;;;;;;27.92;14.82;;;5.50;99.90;;;;;;5035586;28;20029;-73
2022/12/08 05:00:12;;;;;;;24.00;14.40;;;5.50;99.90;;;;;;5033683;28;20044;-74
2022/12/08 05:02:38;;;;;;;23.00;15.02;;;5.50;99.90;;;;;;5031959;28;20167;-73
2022/12/08 05:05:05;;;;;;;27.80;14.98;;;5.40;99.90;;;;;;5035104;28;20025;-74
2022/12/08 05:07:30;;;;;;;21.58;13.98;;;5.50;99.90;;;;;;5035752;28;20029;-73
2022/12/08 05:09:56;;;;;;;20.15;13.35;;;5.50;99.90;;;;;;5032984;28;20090;-74
2022/12/08 05:12:22;;;;;;;17.05;12.45;;;5.50;99.90;;;;;;5034892;28;20029;-71
2022/12/08 05:14:47;;;;;;;20.30;12.23;;;5.50;99.90;;;;;;5023516;28;20465;-72
2022/12/08 05:17:17;;;;;;;17.67;12.32;;;5.50;99.90;;;;;;5032496;28;20442;-72
2022/12/08 05:19:43;;;;;;;16.63;11.18;;;5.50;99.90;;;;;;5036154;28;20639;-71
2022/12/08 05:22:09;;;;;;;15.23;11.13;;;5.50;99.90;;;;;;5034928;28;20028;-75
2022/12/08 05:24:35;;;;;;;18.73;11.40;;;5.40;99.90;;;;;;5034044;28;20021;-72
2022/12/08 05:27:03;;;;;;;18.80;10.07;;;5.40;99.90;;;;;;5031857;28;20048;-74
2022/12/08 05:29:28;;;;;;;15.88;11.30;;;5.50;99.90;;;;;;5030961;28;20021;-73
2022/12/08 05:31:54;;;;;;;16.45;10.07;;;5.40;99.90;;;;;;5035177;28;20026;-74
2022/12/08 05:34:20;;;;;;;12.45;8.85;;;5.30;99.90;;;;;;5031348;28;20017;-73
2022/12/08 05:36:48;;;;;;;14.05;9.98;;;5.40;99.90;;;;;;5034203;28;20033;-72
2022/12/08 05:39:14;;;;;;;11.70;7.55;;;5.40;99.90;;;;;;5037305;28;20123;-73
2022/12/08 05:41:40;;;;;;;11.52;7.32;;;5.40;99.90;;;;;;5034029;28;20036;-73
2022/12/08 05:44:11;;;;;;;12.27;7.30;;;5.20;99.90;;;;;;5032534;28;20334;-72
2022/12/08 05:46:38;;;;;;;8.93;6.80;;;5.40;99.90;;;;;;5034681;28;20024;-73
2022/12/08 05:49:06;;;;;;;9.65;7.28;;;5.30;99.90;;;;;;5034916;28;20121;-73
2022/12/08 05:51:32;;;;;;;12.35;6.63;;;5.30;99.90;;;;;;5035636;28;20091;-72
2022/12/08 05:53:58;;;;;;;9.43;6.47;;;5.30;99.90;;;;;;5031734;28;20466;-71
2022/12/08 05:56:23;;;;;;;8.13;6.18;;;5.20;99.90;;;;;;5032739;28;20068;-73
2022/12/08 05:58:52;;;;;;;9.05;5.40;;;5.20;99.90;;;;;;5031517;28;20033;-72
2022/12/08 06:01:29;;;;;;;8.82;6.60;;;5.10;99.90;;;;;;5032026;28;20086;-74
2022/12/08 06:03:56;;;;;;;6.25;5.28;;;5.20;99.90;;;;;;5031097;28;20452;-72
2022/12/08 06:06:22;;;;;;;5.75;5.13;;;5.40;99.90;;;;;;5033127;28;20052;-72
2022/12/08 06:08:48;;;;;;;5.40;4.80;;;5.30;99.90;;;;;;5030803;28;20021;-72
2022/12/08 06:11:22;;;;;;;6.38;5.07;;;5.30;99.90;;;;;;5034992;28;20777;-72
2022/12/08 06:13:51;;;;;;;7.60;5.68;;;5.30;99.90;;;;;;5033494;28;20022;-73
2022/12/08 06:16:20;;;;;;;9.10;5.47;;;5.30;99.90;;;;;;5029763;28;20040;-72
2022/12/08 06:18:46;;;;;;;6.78;4.68;;;5.30;99.90;;;;;;5030402;28;20033;-72
2022/12/08 06:21:13;;;;;;;7.13;4.97;;;5.30;99.90;;;;;;5032287;28;20029;-73
2022/12/08 06:23:39;;;;;;;6.40;4.90;;;5.30;99.90;;;;;;5028204;28;20032;-72
2022/12/08 06:26:07;;;;;;;6.57;4.90;;;5.20;99.90;;;;;;5033168;28;20034;-72
2022/12/08 06:28:34;;;;;;;8.18;5.45;;;5.30;99.90;;;;;;5028533;28;20029;-71
2022/12/08 06:31:13;;;;;;;6.85;4.93;;;5.20;99.90;;;;;;5033591;28;20139;-73
2022/12/08 06:33:39;;;;;;;9.30;6.28;;;5.10;99.90;;;;;;5031340;28;20112;-70
2022/12/08 06:36:05;;;;;;;7.32;5.50;;;5.20;99.90;;;;;;5032442;28;20112;-71
2022/12/08 06:38:32;;;;;;;9.07;5.75;;;5.20;99.90;;;;;;5033985;28;20044;-72
2022/12/08 06:41:00;;;;;;;8.35;5.25;;;5.30;99.90;;;;;;5027522;28;20042;-71
2022/12/08 06:43:26;;;;;;;10.15;6.57;;;5.40;99.90;;;;;;5031460;28;20048;-72
2022/12/08 06:45:54;;;;;;;9.02;5.43;;;5.30;99.90;;;;;;5032165;28;20036;-72
2022/12/08 06:48:22;;;;;;;5.40;4.40;;;5.20;99.90;;;;;;5030178;28;20039;-68
2022/12/08 06:50:48;;;;;;;7.78;5.32;;;5.20;99.90;;;;;;5031469;28;20021;-72
2022/12/08 06:53:17;;;;;;;6.00;5.07;;;5.30;99.90;;;;;;5020228;28;20024;-72
2022/12/08 06:55:44;;;;;;;5.28;4.68;;;5.30;99.90;;;;;;5034893;28;20025;-72
2022/12/08 06:58:11;;;;;;;7.70;4.95;;;5.20;99.90;;;;;;5031595;28;20025;-72
2022/12/08 07:00:40;;;;;;;9.00;4.90;;;5.30;99.90;;;;;;5034165;28;20025;-72
2022/12/08 07:03:09;;;;;;;5.03;4.40;;;5.20;99.90;;;;;;5034862;28;20127;-72
2022/12/08 07:05:35;;;;;;;7.45;5.18;;;5.20;99.90;;;;;;5035016;28;20026;-72
2022/12/08 07:08:01;;;;;;;6.05;4.70;;;5.20;99.90;;;;;;5038572;28;20031;-74
2022/12/08 07:10:27;;;;;;;6.25;4.82;;;5.20;99.90;;;;;;5038207;28;20013;-72
2022/12/08 07:12:52;;;;;;;8.27;6.00;;;5.30;99.90;;;;;;5036893;28;20087;-72
2022/12/08 07:15:18;;;;;;;9.55;5.57;;;5.20;99.90;;;;;;5037983;28;20034;-72
2022/12/08 07:17:47;;;;;;;8.88;6.00;;;5.20;99.90;;;;;;5035768;28;20040;-72
2022/12/08 07:20:13;;;;;;;9.32;6.47;;;5.30;99.90;;;;;;5034986;28;20104;-73
2022/12/08 07:22:38;;;;;;;14.75;6.25;;;5.20;99.90;;;;;;5030678;28;20041;-72
2022/12/08 07:25:04;;;;;;;9.35;6.18;;;5.30;99.90;;;;;;5036978;28;20393;-72
2022/12/08 07:27:30;;;;;;;10.80;7.00;;;5.30;99.90;;;;;;5034648;28;20032;-74
2022/12/08 07:29:56;;;;;;;11.43;7.05;;;5.40;99.90;;;;;;5035232;28;20029;-71
2022/12/08 07:32:21;;;;;;;12.40;7.00;;;5.40;99.90;;;;;;5035050;28;20030;-71
2022/12/08 07:34:47;;;;;;;14.13;7.68;;;5.40;99.90;;;;;;5035433;28;20022;-72
2022/12/08 07:37:13;;;;;;;10.50;7.30;;;5.40;99.90;;;;;;5032291;28;20021;-71
2022/12/08 07:39:38;;;;;;;12.40;7.88;;;5.50;99.90;;;;;;5032789;28;20029;-71
2022/12/08 07:42:07;;;;;;;14.85;7.75;;;5.50;99.90;;;;;;5035446;28;20095;-68
2022/12/08 07:44:32;;;;;;;13.55;7.47;;;5.50;99.90;;;;;;5033268;28;20033;-71
2022/12/08 07:46:58;;;;;;;13.13;8.20;;;5.40;99.90;;;;;;5032900;28;20021;-71
2022/12/08 07:49:23;;;;;;;16.20;9.68;;;5.40;99.90;;;;;;5036083;28;20031;-71
2022/12/08 07:51:49;;;;;;;15.18;9.30;;;5.40;99.90;;;;;;5035009;28;20421;-72
2022/12/08 07:54:15;;;;;;;18.10;9.18;;;5.40;99.90;;;;;;5031346;28;20446;-71
2022/12/08 07:56:42;;;;;;;13.18;7.95;;;5.50;99.90;;;;;;5030936;28;20596;-71
2022/12/08 07:59:11;;;;;;;12.40;8.48;;;5.40;99.90;;;;;;5035891;28;20327;-72
2022/12/08 08:01:39;;;;;;;12.25;6.93;;;5.30;99.90;;;;;;5032538;28;20041;-71
2022/12/08 08:04:05;;;;;;;10.45;7.13;;;5.30;99.90;;;;;;5032784;28;20025;-71
2022/12/08 08:06:33;;;;;;;14.18;7.85;;;5.30;99.90;;;;;;5034755;28;20044;-71
2022/12/08 08:08:59;;;;;;;11.95;8.05;;;5.20;99.90;;;;;;5032207;28;20032;-71
2022/12/08 08:11:24;;;;;;;11.27;7.13;;;5.30;99.90;;;;;;5030289;28;20041;-71
2022/12/08 08:13:52;;;;;;;11.23;6.75;;;5.30;99.90;;;;;;5030827;28;20446;-73
2022/12/08 08:16:19;;;;;;;11.68;7.10;;;5.30;99.90;;;;;;5030133;28;20034;-72
2022/12/08 08:18:49;;;;;;;12.80;7.85;;;5.40;99.90;;;;;;5034615;28;20100;-71
2022/12/08 08:21:17;;;;;;;15.43;7.88;;;5.40;99.90;;;;;;5031366;28;20026;-73
2022/12/08 08:23:42;;;;;;;12.00;6.65;;;5.50;99.90;;;;;;5035887;28;20021;-73
2022/12/08 08:26:08;;;;;;;9.65;6.50;;;5.50;99.90;;;;;;5034763;28;20091;-71
2022/12/08 08:28:33;;;;;;;9.85;6.32;;;5.40;99.90;;;;;;5032632;28;20084;-72
2022/12/08 08:31:01;;;;;;;14.00;7.70;;;5.50;99.90;;;;;;5039102;28;20025;-72
2022/12/08 08:33:27;;;;;;;8.88;6.22;;;5.50;99.90;;;;;;5032901;28;20033;-73
2022/12/08 08:35:54;;;;;;;10.88;6.43;;;5.50;99.90;;;;;;5032628;28;20083;-76
2022/12/08 08:38:22;;;;;;;9.95;6.53;;;5.40;99.90;;;;;;5030333;28;20108;-76
2022/12/08 08:40:50;;;;;;;9.90;6.45;;;5.40;99.90;;;;;;5043368;28;20025;-71
2022/12/08 08:43:28;;;;;;;14.75;7.45;;;5.40;99.90;;;;;;5038426;28;20044;-75
2022/12/08 08:46:00;;;;;;;8.82;5.88;;;5.40;99.90;;;;;;5036572;28;20017;-75
2022/12/08 08:48:29;;;;;;;8.93;5.97;;;5.40;99.90;;;;;;5023958;28;20497;-71
2022/12/08 08:50:58;;;;;;;7.22;5.28;;;5.40;99.90;;;;;;5038612;28;20048;-74
2022/12/08 08:53:24;;;;;;;9.63;6.07;;;5.40;99.90;;;;;;5035074;28;20416;-72
2022/12/08 08:55:52;;;;;;;7.28;5.70;;;5.50;99.90;;;;;;5040328;28;20029;-73
2022/12/08 08:58:21;;;;;;;9.52;6.22;;;5.50;99.90;;;;;;5039829;28;20029;-73
2022/12/08 09:00:49;;;;;;;11.30;5.88;;;5.60;99.90;;;;;;5038637;28;20350;-72
2022/12/08 09:03:17;;;;;;;8.20;5.80;;;5.60;99.90;;;;;;5029694;28;20346;-71
2022/12/08 09:05:43;;;;;;;8.27;6.38;;;5.60;99.90;;;;;;5035430;28;20032;-72
2022/12/08 09:08:09;;;;;;;9.20;6.35;;;5.60;99.90;;;;;;5031723;28;20327;-72
2022/12/08 09:10:36;;;;;;;8.18;5.97;;;5.50;99.90;;;;;;5051074;28;20040;-72
2022/12/08 09:13:01;;;;;;;8.43;6.43;;;5.50;99.90;;;;;;5035782;28;20026;-72
2022/12/08 09:15:30;;;;;;;7.95;6.53;;;5.60;99.90;;;;;;5031777;28;20027;-71
2022/12/08 09:18:00;;;;;;;5.97;5.13;;;5.60;99.90;;;;;;5033482;28;20508;-72
2022/12/08 09:20:26;;;;;;;9.60;5.93;;;5.60;99.90;;;;;;5032571;28;20116;-73
2022/12/08 09:22:51;;;;;;;11.55;6.40;;;5.80;99.90;;;;;;5029917;28;20128;-72
2022/12/08 09:25:17;;;;;;;18.15;8.52;;;5.70;99.90;;;;;;5029660;28;20028;-71
2022/12/08 09:27:45;;;;;;;9.10;5.88;;;5.80;99.90;;;;;;5030772;28;20069;-73
2022/12/08 09:30:13;;;;;;;10.77;6.18;;;5.90;99.90;;;;;;5029858;28;20099;-73
2022/12/08 09:32:39;;;;;;;15.23;6.88;;;6.10;99.90;;;;;;5020984;28;20036;-72
2022/12/08 09:35:05;;;;;;;7.20;5.85;;;6.10;99.90;;;;;;5035242;28;20045;-71
2022/12/08 09:37:33;;;;;;;6.57;5.22;;;6.10;99.90;;;;;;5036044;28;21461;-73
2022/12/08 09:39:59;;;;;;;7.95;5.10;;;6.00;99.90;;;;;;5031308;28;20021;-73
2022/12/08 09:42:52;;;;;;;7.90;5.57;;;6.00;99.90;;;;;;5032678;28;20028;-73
2022/12/08 09:45:19;;;;;;;8.30;5.32;;;6.20;99.90;;;;;;5031329;28;20031;-72
2022/12/08 09:48:07;;;;;;;5.25;4.75;;;6.20;99.90;;;;;;5031784;28;20041;-74
2022/12/08 09:50:32;;;;;;;6.68;5.00;;;6.30;99.90;;;;;;5029202;28;20092;-74
2022/12/08 09:53:24;;;;;;;5.78;4.88;;;6.30;99.90;;;;;;5033870;28;20108;-73
2022/12/08 09:55:56;;;;;;;6.13;5.05;;;6.40;99.90;;;;;;5022644;28;20044;-72
2022/12/08 09:58:31;;;;;;;7.82;4.10;;;6.30;99.90;;;;;;5037484;28;20041;-73
2022/12/08 10:00:59;;;;;;;5.60;3.95;;;6.20;99.90;;;;;;5034277;28;20018;-76
2022/12/08 10:03:28;;;;;;;7.35;4.30;;;6.30;99.90;;;;;;5034489;28;20039;-73
2022/12/08 10:06:19;;;;;;;5.50;4.10;;;6.10;99.90;;;;;;5034638;28;20033;-75
2022/12/08 10:08:50;;;;;;;6.82;4.40;;;5.90;99.90;;;;;;5046896;28;20021;-72
2022/12/08 10:11:30;;;;;;;4.28;3.90;;;5.90;99.90;;;;;;5033491;28;20053;-75
2022/12/08 10:14:12;;;;;;;5.90;3.95;;;5.90;99.90;;;;;;5031968;28;20045;-74
2022/12/08 10:16:40;;;;;;;6.60;4.00;;;5.90;99.90;;;;;;5039109;28;20030;-74
2022/12/08 10:19:24;;;;;;;5.22;4.53;;;6.00;99.90;;;;;;5042326;28;20025;-75
2022/12/08 10:21:52;;;;;;;4.65;4.07;;;6.00;99.90;;;;;;5041795;28;20037;-74
2022/12/08 10:24:41;;;;;;;5.57;3.97;;;6.10;99.90;;;;;;5040863;28;20030;-72
2022/12/08 10:27:13;;;;;;;7.00;4.30;;;6.10;99.90;;;;;;5038088;28;20112;-74
2022/12/08 10:29:41;;;;;;;7.10;4.13;;;6.10;99.90;;;;;;5038052;28;20599;-74
2022/12/08 10:32:18;;;;;;;6.53;4.72;;;6.10;99.90;;;;;;5034613;28;20035;-73
2022/12/08 10:35:09;;;;;;;6.43;4.50;;;6.20;99.90;;;;;;5031057;28;20029;-73
2022/12/08 10:37:35;;;;;;;5.68;4.30;;;6.10;99.90;;;;;;5034810;28;20021;-72
2022/12/08 10:40:10;;;;;;;6.40;4.25;;;6.20;99.90;;;;;;5035184;28;20056;-74
2022/12/08 10:42:47;;;;;;;8.02;5.10;;;6.10;99.90;;;;;;5034131;28;20174;-73
2022/12/08 10:45:21;;;;;;;5.85;5.03;;;6.30;99.90;;;;;;5036630;28;20021;-73
2022/12/08 10:48:21;;;;;;;5.90;4.82;;;6.20;99.90;;;;;;5038893;28;20047;-72
2022/12/08 10:50:58;;;;;;;7.70;4.97;;;6.00;99.90;;;;;;5030930;28;20343;-73
2022/12/08 10:53:24;;;;;;;4.50;3.70;;;6.20;99.90;;;;;;5038057;28;20928;-72
2022/12/08 10:55:51;;;;;;;5.25;4.25;;;6.10;99.90;;;;;;5032653;28;20119;-72
2022/12/08 10:58:34;;;;;;;5.40;4.53;;;6.20;99.90;;;;;;5034764;28;20021;-73
2022/12/08 11:01:05;;;;;;;4.93;4.40;;;6.20;99.90;;;;;;5032419;28;20032;-73
2022/12/08 11:03:35;;;;;;;9.13;6.00;;;6.30;99.90;;;;;;5032552;28;20103;-72
2022/12/08 11:06:11;;;;;;;14.35;5.45;;;6.30;99.90;;;;;;5031901;28;20167;-72
2022/12/08 11:08:48;;;;;;;4.85;4.45;;;6.30;99.90;;;;;;5032104;28;20017;-72
2022/12/08 11:11:14;;;;;;;4.57;4.15;;;6.40;99.90;;;;;;5034822;28;20488;-69
2022/12/08 11:13:41;;;;;;;4.70;4.25;;;6.40;99.90;;;;;;5032661;28;20116;-74
2022/12/08 11:16:07;;;;;;;6.45;4.72;;;6.50;99.90;;;;;;5036158;28;20100;-72
2022/12/08 11:18:42;;;;;;;5.75;4.90;;;6.60;99.90;;;;;;5035163;28;20033;-72
2022/12/08 11:21:17;;;;;;;4.97;4.57;;;6.50;99.90;;;;;;5033786;28;20021;-72
2022/12/08 11:23:50;;;;;;;5.28;4.40;;;6.60;99.90;;;;;;5037232;28;20032;-74
2022/12/08 11:26:38;;;;;;;4.55;4.15;;;6.60;99.90;;;;;;5034053;28;20798;-71
2022/12/08 11:29:04;;;;;;;4.55;4.15;;;6.40;99.90;;;;;;5034673;28;20118;-72
2022/12/08 11:31:38;;;;;;;4.20;3.80;;;6.40;99.90;;;;;;5033321;28;20034;-71
2022/12/08 11:34:08;;;;;;;4.80;4.30;;;6.20;99.90;;;;;;5034007;28;20494;-73
2022/12/08 11:36:36;;;;;;;4.55;4.15;;;6.20;99.90;;;;;;5040986;28;20152;-73
2022/12/08 11:39:04;;;;;;;5.22;4.72;;;6.30;99.90;;;;;;5032304;28;20030;-71
2022/12/08 11:41:39;;;;;;;5.18;4.65;;;6.10;99.90;;;;;;5036026;28;20060;-75
2022/12/08 11:44:19;;;;;;;4.82;4.43;;;6.10;99.90;;;;;;5039255;28;20460;-75
2022/12/08 11:47:05;;;;;;;4.22;3.92;;;6.30;99.90;;;;;;5035950;28;20116;-73
2022/12/08 11:49:37;;;;;;;4.75;3.80;;;6.20;99.90;;;;;;5034157;28;20029;-73
2022/12/08 11:52:11;;;;;;;9.52;4.93;;;6.30;99.90;;;;;;5031545;28;20722;-72
2022/12/08 11:55:03;;;;;;;4.03;3.72;;;6.30;99.90;;;;;;5034210;28;20087;-73
2022/12/08 11:57:31;;;;;;;6.00;4.63;;;6.30;99.90;;;;;;5034369;28;20038;-70
2022/12/08 11:59:57;;;;;;;4.68;3.83;;;6.30;99.90;;;;;;5035133;28;20083;-72
2022/12/08 12:02:33;;;;;;;5.82;4.22;;;6.30;99.90;;;;;;5035432;28;20048;-73
2022/12/08 12:05:08;;;;;;;4.65;3.58;;;6.20;99.90;;;;;;5034470;28;20061;-73
2022/12/08 12:07:57;;;;;;;4.93;3.65;;;6.10;99.90;;;;;;5032044;28;20129;-73
2022/12/08 12:10:53;;;;;;;3.17;2.88;;;6.00;99.90;;;;;;5020954;28;20037;-72
2022/12/08 12:13:22;;;;;;;3.42;3.13;;;6.00;99.90;;;;;;5021362;28;20459;-71
2022/12/08 12:16:25;;;;;;;3.25;2.95;;;6.00;99.90;;;;;;5032306;28;20242;-73
2022/12/08 12:18:55;;;;;;;;;;;6.10;99.90;;;;;;5032889;28;20439;-72
2022/12/08 12:21:26;;;;;;;3.05;2.75;;;6.20;99.90;;;;;;5032392;28;20563;-73
2022/12/08 12:23:56;;;;;;;7.40;4.88;;;6.30;99.90;;;;;;5024041;28;20044;-75
2022/12/08 12:26:30;;;;;;;4.60;3.50;;;6.30;99.90;;;;;;5032862;28;20140;-70
2022/12/08 12:28:59;;;;;;;1.95;1.80;;;6.30;99.90;;;;;;5042017;28;20454;-75
2022/12/08 12:31:32;;;;;;;1.17;1.17;;;6.20;99.90;;;;;;5035348;28;20037;-73
2022/12/08 12:34:14;;;;;;;1.90;1.75;;;6.10;99.90;;;;;;5036078;28;20112;-74
2022/12/08 12:36:53;;;;;;;1.67;1.50;;;6.00;99.90;;;;;;5020781;28;20033;-75
2022/12/08 12:39:25;;;;;;;2.58;1.40;;;6.00;99.90;;;;;;5030218;28;20032;-73
2022/12/08 12:41:56;;;;;;;;;;;6.00;99.90;;;;;;5033076;28;20048;-73
2022/12/08 12:44:35;;;;;;;6.22;1.80;;;6.00;99.90;;;;;;5031661;28;19913;-73
2022/12/08 12:47:09;;;;;;;2.00;1.90;;;6.00;99.90;;;;;;5033779;28;20032;-75
2022/12/08 12:50:05;;;;;;;2.10;1.75;;;6.00;99.90;;;;;;5032721;28;20104;-72
2022/12/08 12:52:31;;;;;;;2.58;2.35;;;5.90;99.90;;;;;;5032763;28;20029;-72
2022/12/08 12:54:56;;;;;;;4.68;2.47;;;5.90;99.90;;;;;;5034760;28;20051;-74
2022/12/08 12:57:33;;;;;;;2.65;2.45;;;5.90;99.90;;;;;;5037693;28;20033;-74
2022/12/08 12:59:59;;;;;;;2.70;2.50;;;6.00;99.90;;;;;;5032603;28;20061;-72
2022/12/08 13:02:43;;;;;;;2.80;2.50;;;6.00;99.90;;;;;;5029826;28;20060;-72
2022/12/08 13:05:17;;;;;;;5.32;3.05;;;5.90;99.90;;;;;;5028751;28;20032;-72
2022/12/08 13:08:00;;;;;;;2.70;2.50;;;6.00;99.90;;;;;;5032523;28;20026;-72
2022/12/08 13:10:40;;;;;;;2.58;2.38;;;6.00;99.90;;;;;;5028285;28;20033;-72
2022/12/08 13:13:09;;;;;;;14.45;5.03;;;6.10;99.90;;;;;;5031412;28;20117;-72
2022/12/08 13:16:06;;;;;;;2.90;2.65;;;6.20;99.90;;;;;;5037486;28;20033;-74